Time;durP1;ratioP1;P1;durP2;ratioP2;P2;SDS_P1;SDS_P2;PMS_P1;PMS_P2;Temp;Humidity;BMP_temperature;BMP_pressure;BME280_temperature;BME280_humidity;BME280_pressure;Samples;Min_cycle;Max_cycle;Signal;HPM_P1;HPM_P2
2021/07/07 00:01:43;;;;;;;4.57;2.22;;;15.40;80.40;;;;;;5072072;28;20060;-88
2021/07/07 00:04:09;;;;;;;5.97;2.08;;;15.40;81.00;;;;;;5089898;28;20105;-88
2021/07/07 00:06:34;;;;;;;6.20;2.30;;;15.40;82.30;;;;;;5056503;28;20021;-89
2021/07/07 00:09:02;;;;;;;5.35;2.50;;;15.50;82.10;;;;;;5051772;28;20044;-93
2021/07/07 00:11:28;;;;;;;6.07;2.35;;;15.50;80.80;;;;;;5040799;28;20042;-95
2021/07/07 00:13:53;;;;;;;9.18;2.70;;;15.40;80.30;;;;;;5064181;28;20030;-92
2021/07/07 00:16:19;;;;;;;6.75;2.47;;;15.40;80.00;;;;;;5032263;28;20120;-94
2021/07/07 00:18:45;;;;;;;8.27;2.20;;;15.20;80.10;;;;;;5033628;28;20032;-92
2021/07/07 00:21:11;;;;;;;10.55;2.58;;;15.20;80.10;;;;;;5034950;28;20021;-92
2021/07/07 00:23:37;;;;;;;5.25;2.10;;;15.10;80.50;;;;;;5083941;28;20037;-87
2021/07/07 00:26:04;;;;;;;6.43;2.28;;;15.10;81.70;;;;;;5090146;28;20033;-89
2021/07/07 00:28:30;;;;;;;6.03;2.30;;;15.00;81.20;;;;;;5093967;28;20042;-90
2021/07/07 00:30:56;;;;;;;6.40;2.20;;;15.00;81.80;;;;;;5035018;28;20128;-90
2021/07/07 00:33:22;;;;;;;6.47;2.42;;;15.00;82.10;;;;;;5035454;28;20025;-92
2021/07/07 00:35:47;;;;;;;6.70;2.05;;;15.10;82.30;;;;;;5033895;28;20067;-91
2021/07/07 00:38:14;;;;;;;6.05;2.72;;;15.10;81.70;;;;;;5035182;28;20026;-94
2021/07/07 00:40:41;;;;;;;4.95;2.10;;;15.10;81.30;;;;;;5033092;28;20120;-92
2021/07/07 00:43:07;;;;;;;5.00;2.28;;;15.00;81.20;;;;;;5065964;28;20022;-92
2021/07/07 00:45:33;;;;;;;7.30;2.33;;;14.90;80.90;;;;;;5029833;28;20044;-92
2021/07/07 00:47:59;;;;;;;7.82;2.40;;;14.80;81.10;;;;;;5065715;28;20406;-92
2021/07/07 00:50:25;;;;;;;6.80;2.47;;;14.70;81.90;;;;;;5062527;28;20049;-92
2021/07/07 00:53:13;;;;;;;6.32;2.30;;;14.60;82.70;;;;;;5067179;28;20025;-86
2021/07/07 00:55:46;;;;;;;5.20;2.00;;;14.60;83.50;;;;;;5058495;28;20029;-88
2021/07/07 00:58:45;;;;;;;6.22;2.28;;;14.60;83.00;;;;;;5056806;28;20016;-89
2021/07/07 01:01:15;;;;;;;4.18;2.35;;;14.60;82.50;;;;;;5047561;28;20109;-84
2021/07/07 01:04:08;;;;;;;7.05;2.22;;;14.60;83.30;;;;;;5054215;28;20109;-87
2021/07/07 01:06:59;;;;;;;6.97;2.25;;;14.60;82.80;;;;;;5041901;28;20003;-86
2021/07/07 01:09:44;;;;;;;4.65;2.10;;;14.50;82.50;;;;;;5034083;28;20549;-89
2021/07/07 01:12:10;;;;;;;4.57;2.17;;;14.50;82.50;;;;;;5067409;28;20025;-89
2021/07/07 01:14:36;;;;;;;5.40;2.20;;;14.40;83.40;;;;;;5031232;28;20057;-89
2021/07/07 01:17:02;;;;;;;4.97;2.42;;;14.30;82.20;;;;;;5059231;28;20034;-89
2021/07/07 01:19:28;;;;;;;4.88;2.45;;;14.20;82.40;;;;;;5033234;28;20099;-89
2021/07/07 01:21:54;;;;;;;5.15;2.50;;;14.20;82.60;;;;;;5031219;28;20489;-88
2021/07/07 01:24:21;;;;;;;4.80;2.00;;;14.10;82.20;;;;;;5040010;28;20052;-93
2021/07/07 01:29:22;;;;;;;3.08;1.75;;;14.10;83.90;;;;;;5034651;28;20030;-91
2021/07/07 01:31:49;;;;;;;5.05;2.00;;;14.00;83.30;;;;;;5039185;28;20014;-93
2021/07/07 01:34:15;;;;;;;5.43;2.22;;;14.00;84.20;;;;;;5031296;28;20029;-95
2021/07/07 01:36:40;;;;;;;4.05;2.08;;;14.00;83.80;;;;;;5012329;28;20554;-93
2021/07/07 01:39:08;;;;;;;6.63;2.05;;;13.90;83.30;;;;;;5027034;28;20060;-90
2021/07/07 01:41:34;;;;;;;3.55;1.98;;;13.80;83.80;;;;;;5008073;28;20030;-90
2021/07/07 01:44:00;;;;;;;6.40;2.35;;;13.80;83.90;;;;;;5007634;28;20032;-90
2021/07/07 01:46:27;;;;;;;6.72;2.13;;;13.80;84.10;;;;;;5011628;28;20105;-91
2021/07/07 01:48:53;;;;;;;10.27;2.10;;;13.80;83.60;;;;;;5013161;28;20023;-89
2021/07/07 01:51:19;;;;;;;5.20;1.90;;;13.70;83.20;;;;;;5014158;28;20450;-91
2021/07/07 01:53:45;;;;;;;6.30;2.20;;;13.70;84.10;;;;;;5012213;28;20117;-94
2021/07/07 01:56:11;;;;;;;3.63;1.98;;;13.70;83.50;;;;;;5007992;28;20037;-94
2021/07/07 01:58:37;;;;;;;3.58;2.20;;;13.60;84.00;;;;;;5010940;28;20053;-92
2021/07/07 02:01:05;;;;;;;6.15;2.10;;;13.60;83.60;;;;;;5011930;28;20054;-93
2021/07/07 02:03:30;;;;;;;5.03;1.88;;;13.60;83.40;;;;;;5014003;28;20046;-91
2021/07/07 02:05:56;;;;;;;3.95;1.92;;;13.50;83.40;;;;;;5013444;28;20041;-93
2021/07/07 02:08:22;;;;;;;5.20;2.13;;;13.50;84.30;;;;;;5010393;28;20483;-92
2021/07/07 02:10:47;;;;;;;6.50;1.77;;;13.50;83.40;;;;;;5010598;28;20045;-93
2021/07/07 02:13:14;;;;;;;4.28;1.83;;;13.50;84.00;;;;;;5010751;28;20387;-93
2021/07/07 02:15:40;;;;;;;4.47;2.20;;;13.50;83.90;;;;;;5012870;28;20053;-88
2021/07/07 02:18:07;;;;;;;4.78;2.05;;;13.40;83.20;;;;;;5013509;28;20173;-91
2021/07/07 02:20:35;;;;;;;4.93;2.17;;;13.40;83.40;;;;;;5010223;28;20557;-92
2021/07/07 02:23:01;;;;;;;4.97;2.30;;;13.30;83.20;;;;;;5010704;28;20076;-92
2021/07/07 02:25:32;;;;;;;10.93;2.38;;;13.30;83.80;;;;;;5011411;28;20036;-92
2021/07/07 02:27:59;;;;;;;8.52;2.22;;;13.30;83.40;;;;;;5011536;28;20050;-90
2021/07/07 02:30:28;;;;;;;6.18;2.33;;;13.30;83.40;;;;;;5014184;28;20115;-89
2021/07/07 02:32:55;;;;;;;6.35;1.90;;;13.20;83.10;;;;;;5011928;28;20483;-89
2021/07/07 02:35:24;;;;;;;6.88;2.00;;;13.20;83.70;;;;;;5010907;28;20032;-91
2021/07/07 02:37:53;;;;;;;2.65;1.80;;;13.20;84.10;;;;;;5009784;28;20486;-90
2021/07/07 02:40:27;;;;;;;5.63;1.88;;;13.20;83.50;;;;;;5010732;28;20033;-92
2021/07/07 02:42:53;;;;;;;9.05;2.10;;;13.20;84.10;;;;;;5005467;28;20030;-91
2021/07/07 02:45:20;;;;;;;6.65;1.80;;;13.10;83.50;;;;;;5019987;28;20024;-86
2021/07/07 02:47:47;;;;;;;6.03;2.28;;;13.10;83.10;;;;;;5032072;28;20038;-93
2021/07/07 02:50:15;;;;;;;5.68;2.03;;;13.10;83.20;;;;;;5031838;28;20034;-92
2021/07/07 02:52:43;;;;;;;6.53;2.30;;;13.10;83.60;;;;;;5033225;28;20026;-88
2021/07/07 02:55:14;;;;;;;5.55;2.08;;;13.00;83.40;;;;;;5028988;28;20021;-92
2021/07/07 02:57:58;;;;;;;5.90;2.33;;;13.00;83.50;;;;;;5030983;28;20010;-90
2021/07/07 03:00:35;;;;;;;5.20;2.22;;;13.00;83.90;;;;;;5010314;28;20065;-90
2021/07/07 03:03:07;;;;;;;5.00;2.17;;;12.90;83.90;;;;;;5006659;28;20061;-91
2021/07/07 03:05:36;;;;;;;7.50;2.10;;;12.90;83.20;;;;;;5010301;28;20026;-91
2021/07/07 03:08:02;;;;;;;6.15;2.20;;;12.90;84.70;;;;;;5009383;28;20026;-92
2021/07/07 03:10:28;;;;;;;3.55;2.00;;;12.90;83.80;;;;;;5010508;28;20042;-88
2021/07/07 03:12:53;;;;;;;5.35;1.85;;;12.80;84.90;;;;;;5008189;28;20072;-89
2021/07/07 03:15:19;;;;;;;5.07;1.73;;;12.90;84.80;;;;;;4999901;28;20030;-88
2021/07/07 03:17:45;;;;;;;3.85;2.22;;;12.80;84.00;;;;;;5010691;28;20030;-88
2021/07/07 03:20:11;;;;;;;4.35;1.80;;;12.80;84.30;;;;;;5008588;28;20049;-89
2021/07/07 03:22:37;;;;;;;8.20;2.22;;;12.80;84.10;;;;;;5009421;28;20513;-89
2021/07/07 03:25:04;;;;;;;3.92;2.20;;;12.80;83.80;;;;;;5008787;28;20026;-89
2021/07/07 03:27:29;;;;;;;7.28;2.30;;;12.70;83.60;;;;;;5010921;28;20038;-94
2021/07/07 03:29:55;;;;;;;5.35;1.80;;;12.70;84.00;;;;;;5012731;28;20475;-93
2021/07/07 03:32:21;;;;;;;4.88;2.45;;;12.70;84.40;;;;;;5011365;28;20029;-91
2021/07/07 03:34:46;;;;;;;9.40;2.70;;;12.60;83.50;;;;;;5009294;28;20379;-94
2021/07/07 03:37:12;;;;;;;5.20;2.20;;;12.60;83.90;;;;;;5019798;28;20032;-94
2021/07/07 03:39:38;;;;;;;5.18;2.10;;;12.60;84.00;;;;;;5032971;28;20029;-87
2021/07/07 03:42:04;;;;;;;4.78;2.25;;;12.60;84.10;;;;;;5032632;28;20060;-87
2021/07/07 03:44:29;;;;;;;3.88;2.22;;;12.50;83.80;;;;;;5035874;28;20006;-90
2021/07/07 03:46:55;;;;;;;6.70;2.03;;;12.50;84.00;;;;;;5036185;28;20018;-90
2021/07/07 03:49:22;;;;;;;4.72;2.40;;;12.50;84.30;;;;;;5037363;28;20013;-91
2021/07/07 03:51:48;;;;;;;6.28;2.25;;;12.50;84.50;;;;;;5036056;28;20133;-87
2021/07/07 03:54:14;;;;;;;6.25;2.22;;;12.50;84.10;;;;;;5037884;28;20012;-87
2021/07/07 03:56:41;;;;;;;3.15;2.30;;;12.50;84.80;;;;;;5036623;28;20014;-85
2021/07/07 03:59:29;;;;;;;5.53;2.50;;;12.50;84.30;;;;;;5034817;28;20021;-85
2021/07/07 04:02:25;;;;;;;5.95;2.10;;;12.60;83.90;;;;;;5024131;28;20077;-89
2021/07/07 04:04:51;;;;;;;3.60;2.20;;;12.40;84.20;;;;;;5016130;28;20038;-94
2021/07/07 04:07:17;;;;;;;4.88;2.17;;;12.40;84.20;;;;;;5008529;28;20033;-93
2021/07/07 04:09:42;;;;;;;7.68;2.30;;;12.40;84.20;;;;;;5010184;28;20034;-93
2021/07/07 04:12:08;;;;;;;5.10;1.98;;;12.40;84.60;;;;;;5003497;28;20038;-92
2021/07/07 04:14:34;;;;;;;8.05;2.28;;;12.30;84.80;;;;;;5021480;28;20030;-93
2021/07/07 04:16:59;;;;;;;5.00;2.70;;;12.40;84.70;;;;;;5007811;28;20096;-93
2021/07/07 04:19:27;;;;;;;4.32;1.95;;;12.40;85.30;;;;;;5009592;28;20387;-92
2021/07/07 04:21:53;;;;;;;6.28;2.72;;;12.30;85.30;;;;;;5008807;28;20228;-93
2021/07/07 04:24:20;;;;;;;6.38;2.60;;;12.40;84.70;;;;;;5015614;28;20037;-94
2021/07/07 04:26:46;;;;;;;5.25;2.58;;;12.30;84.80;;;;;;5010781;28;20025;-95
2021/07/07 04:29:12;;;;;;;6.15;2.60;;;12.40;84.50;;;;;;5010990;28;20073;-89
2021/07/07 04:31:39;;;;;;;4.63;2.40;;;12.40;84.90;;;;;;5008809;28;20540;-90
2021/07/07 04:34:05;;;;;;;3.95;2.30;;;12.40;84.90;;;;;;5009074;28;20034;-89
2021/07/07 04:36:32;;;;;;;3.30;2.25;;;12.40;84.80;;;;;;5008093;28;20034;-89
2021/07/07 04:39:33;;;;;;;5.07;2.63;;;12.40;84.90;;;;;;5018442;28;20024;-84
2021/07/07 04:42:08;;;;;;;3.88;1.98;;;12.40;84.30;;;;;;5038927;28;20029;-88
2021/07/07 04:44:34;;;;;;;5.78;2.70;;;12.40;84.60;;;;;;5012408;28;20046;-88
2021/07/07 04:47:00;;;;;;;5.93;2.08;;;12.40;85.20;;;;;;5008974;28;20041;-89
2021/07/07 04:49:26;;;;;;;5.63;2.50;;;12.40;85.30;;;;;;5007758;28;20034;-90
2021/07/07 04:51:52;;;;;;;7.13;2.30;;;12.40;84.50;;;;;;5011025;28;20030;-91
2021/07/07 04:54:17;;;;;;;6.38;2.47;;;12.50;84.90;;;;;;5008605;28;20097;-91
2021/07/07 04:56:44;;;;;;;5.03;2.40;;;12.50;84.60;;;;;;5009403;28;20054;-90
2021/07/07 04:59:11;;;;;;;6.95;2.42;;;12.50;85.10;;;;;;5021048;28;20026;-95
2021/07/07 05:01:38;;;;;;;7.93;2.70;;;12.50;84.80;;;;;;5019991;28;20038;-92
2021/07/07 05:04:05;;;;;;;5.30;2.30;;;12.60;84.80;;;;;;5002798;28;20407;-95
2021/07/07 05:06:31;;;;;;;7.10;2.88;;;12.70;84.90;;;;;;5027524;28;20085;-94
2021/07/07 05:08:57;;;;;;;7.13;3.03;;;12.70;85.10;;;;;;5031158;28;20044;-95
2021/07/07 05:11:22;;;;;;;5.43;2.35;;;12.70;84.90;;;;;;5016908;28;20069;-92
2021/07/07 05:13:49;;;;;;;6.10;2.70;;;12.80;85.10;;;;;;5025731;28;20014;-93
2021/07/07 05:16:17;;;;;;;8.43;2.85;;;12.80;85.30;;;;;;5035618;28;20037;-91
2021/07/07 05:18:45;;;;;;;4.53;2.40;;;12.90;84.80;;;;;;5033415;28;20046;-91
2021/07/07 05:21:12;;;;;;;4.95;2.42;;;12.90;85.10;;;;;;5016412;28;20094;-96
2021/07/07 05:23:38;;;;;;;5.05;2.65;;;13.00;85.10;;;;;;5011936;28;20019;-95
2021/07/07 05:26:04;;;;;;;6.35;2.90;;;13.10;84.80;;;;;;5015561;28;20028;-95
2021/07/07 05:28:30;;;;;;;7.55;2.80;;;13.10;84.80;;;;;;5016882;28;20142;-95
2021/07/07 05:31:04;;;;;;;9.23;3.00;;;13.20;84.80;;;;;;5019043;28;20117;-94
2021/07/07 05:33:33;;;;;;;5.80;2.35;;;13.20;84.70;;;;;;5011831;28;20053;-94
2021/07/07 05:36:00;;;;;;;5.30;2.78;;;13.30;85.10;;;;;;5008903;28;20025;-94
2021/07/07 05:38:26;;;;;;;7.97;2.75;;;13.30;84.50;;;;;;5015479;28;20081;-94
2021/07/07 05:40:51;;;;;;;5.93;2.33;;;13.30;84.60;;;;;;5010348;28;20033;-94
2021/07/07 05:43:17;;;;;;;8.45;2.58;;;13.40;84.20;;;;;;5022161;28;20017;-93
2021/07/07 05:45:42;;;;;;;6.43;2.60;;;13.50;84.20;;;;;;5013264;28;20555;-91
2021/07/07 05:48:08;;;;;;;8.68;2.60;;;13.40;84.20;;;;;;5014360;28;20117;-92
2021/07/07 05:50:34;;;;;;;7.82;2.67;;;13.40;83.80;;;;;;5012451;28;20048;-93
2021/07/07 05:52:59;;;;;;;7.93;2.58;;;13.50;84.00;;;;;;5010811;28;20022;-91
2021/07/07 05:55:25;;;;;;;9.10;2.80;;;13.50;84.00;;;;;;5011798;28;20030;-91
2021/07/07 05:57:51;;;;;;;6.38;2.67;;;13.50;84.30;;;;;;5013932;28;20046;-91
2021/07/07 06:00:22;;;;;;;5.68;2.28;;;13.50;84.10;;;;;;5015278;28;20073;-92
2021/07/07 06:02:48;;;;;;;9.52;2.65;;;13.40;84.00;;;;;;5013409;28;20022;-92
2021/07/07 06:05:15;;;;;;;6.85;2.40;;;13.40;84.10;;;;;;5011529;28;20394;-90
2021/07/07 06:07:41;;;;;;;10.48;2.90;;;13.40;84.50;;;;;;5011859;28;20037;-92
2021/07/07 06:10:09;;;;;;;5.50;2.67;;;13.50;84.40;;;;;;5010726;28;20042;-94
2021/07/07 06:12:35;;;;;;;6.10;2.45;;;13.60;84.60;;;;;;5014526;28;20486;-94
2021/07/07 06:15:01;;;;;;;9.07;2.33;;;13.60;84.30;;;;;;5004873;28;20035;-94
2021/07/07 06:17:27;;;;;;;6.80;2.92;;;13.60;84.20;;;;;;5019102;28;20112;-93
2021/07/07 06:19:52;;;;;;;4.20;2.30;;;13.60;84.10;;;;;;5014339;28;20030;-94
2021/07/07 06:22:18;;;;;;;10.43;2.63;;;13.60;84.30;;;;;;5013145;28;20034;-94
2021/07/07 06:24:44;;;;;;;6.20;2.33;;;13.60;84.20;;;;;;5012932;28;20022;-92
2021/07/07 06:27:10;;;;;;;5.25;2.63;;;13.70;84.30;;;;;;5010265;28;20375;-94
2021/07/07 06:29:35;;;;;;;6.82;2.65;;;13.80;84.20;;;;;;4999558;28;20030;-90
2021/07/07 06:32:01;;;;;;;5.20;2.28;;;13.80;84.50;;;;;;5006112;28;20038;-90
2021/07/07 06:34:27;;;;;;;5.00;2.78;;;13.90;84.70;;;;;;5009854;28;20033;-91
2021/07/07 06:36:52;;;;;;;4.10;2.30;;;14.00;84.50;;;;;;5010867;28;20054;-89
2021/07/07 06:39:18;;;;;;;6.13;2.38;;;14.10;84.40;;;;;;5014350;28;20060;-90
2021/07/07 06:41:44;;;;;;;9.32;2.55;;;14.20;84.30;;;;;;5010685;28;20025;-89
2021/07/07 06:44:09;;;;;;;7.78;2.53;;;14.30;84.20;;;;;;5010408;28;20387;-90
2021/07/07 06:46:36;;;;;;;6.15;2.47;;;14.40;84.00;;;;;;5009325;28;20029;-91
2021/07/07 06:49:02;;;;;;;5.75;2.72;;;14.40;83.90;;;;;;5009745;28;20044;-92
2021/07/07 06:51:28;;;;;;;8.65;2.95;;;14.50;84.10;;;;;;5013030;28;20034;-87
2021/07/07 06:53:54;;;;;;;5.20;2.33;;;14.70;84.20;;;;;;5010482;28;20497;-89
2021/07/07 06:56:19;;;;;;;6.93;2.30;;;14.80;83.70;;;;;;5011643;28;20393;-89
2021/07/07 06:58:45;;;;;;;5.93;2.30;;;14.80;83.30;;;;;;5010117;28;20028;-92
2021/07/07 07:01:11;;;;;;;8.25;2.22;;;14.90;83.40;;;;;;5009407;28;20444;-90
2021/07/07 07:03:36;;;;;;;3.85;1.90;;;15.00;83.30;;;;;;5006504;28;20030;-90
2021/07/07 07:06:02;;;;;;;5.22;2.08;;;15.10;83.10;;;;;;5001416;28;20033;-90
2021/07/07 07:08:27;;;;;;;6.22;2.10;;;15.10;82.60;;;;;;4999273;28;20513;-88
2021/07/07 07:10:53;;;;;;;2.42;1.73;;;15.20;82.50;;;;;;4992407;28;20097;-86
2021/07/07 07:13:19;;;;;;;5.65;2.00;;;15.20;82.00;;;;;;5001205;28;20038;-89
2021/07/07 07:15:47;;;;;;;4.00;1.98;;;15.20;82.30;;;;;;4998864;28;20418;-90
2021/07/07 07:18:14;;;;;;;5.78;2.03;;;15.30;82.10;;;;;;5001387;28;20049;-91
2021/07/07 07:20:40;;;;;;;6.90;2.30;;;15.30;82.30;;;;;;5007835;28;20034;-88
2021/07/07 07:23:05;;;;;;;5.57;1.85;;;15.30;82.30;;;;;;4997660;28;20160;-88
2021/07/07 07:25:31;;;;;;;7.03;2.08;;;15.40;82.10;;;;;;4995426;28;20112;-88
2021/07/07 07:27:57;;;;;;;8.85;2.10;;;15.50;82.10;;;;;;4993234;28;20056;-91
2021/07/07 07:30:27;;;;;;;5.75;2.00;;;15.40;82.20;;;;;;5002618;28;20565;-92
2021/07/07 07:32:52;;;;;;;7.03;2.15;;;15.50;81.70;;;;;;5004399;28;20026;-91
2021/07/07 07:35:20;;;;;;;6.10;2.15;;;15.50;81.60;;;;;;5000928;28;20027;-91
2021/07/07 07:37:50;;;;;;;5.65;2.28;;;15.60;81.70;;;;;;5001821;28;20026;-88
2021/07/07 07:40:27;;;;;;;4.88;1.98;;;15.60;81.50;;;;;;5007057;28;20361;-86
2021/07/07 07:42:53;;;;;;;6.35;1.90;;;15.60;81.40;;;;;;5007975;28;20084;-84
2021/07/07 07:45:20;;;;;;;10.85;2.30;;;15.60;81.40;;;;;;4980588;28;20167;-84
2021/07/07 07:47:45;;;;;;;3.63;1.83;;;15.70;81.30;;;;;;4993960;28;20014;-84
2021/07/07 07:50:14;;;;;;;5.82;1.70;;;15.70;80.80;;;;;;4998580;28;20038;-84
2021/07/07 07:52:41;;;;;;;3.63;1.80;;;15.80;80.90;;;;;;5005792;28;20126;-84
2021/07/07 07:55:07;;;;;;;3.67;1.63;;;15.80;80.90;;;;;;4998459;28;20116;-85
2021/07/07 07:57:36;;;;;;;8.18;1.88;;;15.90;80.80;;;;;;5000069;28;20026;-85
2021/07/07 08:00:08;;;;;;;5.70;1.65;;;16.00;81.00;;;;;;4996292;28;20088;-84
2021/07/07 08:02:34;;;;;;;4.80;1.75;;;16.10;79.50;;;;;;5002528;28;21126;-83
2021/07/07 08:04:59;;;;;;;3.35;1.50;;;16.20;79.60;;;;;;4998247;28;20021;-82
2021/07/07 08:07:27;;;;;;;5.90;1.77;;;16.20;78.80;;;;;;4991424;28;20034;-84
2021/07/07 08:09:54;;;;;;;7.97;1.90;;;16.20;79.10;;;;;;4991346;28;20030;-82
2021/07/07 08:12:20;;;;;;;7.85;1.75;;;16.20;78.40;;;;;;5002167;28;20025;-82
2021/07/07 08:14:48;;;;;;;7.10;2.53;;;16.30;79.20;;;;;;5008402;28;20022;-83
2021/07/07 08:17:13;;;;;;;7.95;2.28;;;16.30;78.40;;;;;;4998541;28;20026;-83
2021/07/07 08:19:39;;;;;;;8.90;2.15;;;16.40;78.80;;;;;;4998964;28;20037;-75
2021/07/07 08:22:04;;;;;;;5.40;1.80;;;16.40;77.90;;;;;;4996196;28;20054;-74
2021/07/07 08:24:30;;;;;;;4.45;1.58;;;16.40;77.00;;;;;;5007471;28;20110;-74
2021/07/07 08:26:58;;;;;;;3.67;1.65;;;16.40;76.30;;;;;;5003474;28;20023;-74
2021/07/07 08:29:23;;;;;;;7.35;2.00;;;16.30;77.20;;;;;;4997119;28;20053;-78
2021/07/07 08:31:49;;;;;;;4.38;1.80;;;16.30;77.40;;;;;;5009545;28;20037;-77
2021/07/07 08:34:14;;;;;;;5.97;1.90;;;16.50;77.40;;;;;;5005151;28;20084;-77
2021/07/07 08:36:40;;;;;;;4.25;1.70;;;16.50;77.70;;;;;;5009144;28;20041;-79
2021/07/07 08:39:06;;;;;;;6.90;2.03;;;16.50;75.90;;;;;;4998861;28;20034;-77
2021/07/07 08:41:33;;;;;;;5.53;1.90;;;16.50;76.70;;;;;;5003364;28;20030;-77
2021/07/07 08:43:59;;;;;;;3.88;1.90;;;16.60;76.10;;;;;;5006992;28;20030;-79
2021/07/07 08:46:25;;;;;;;4.60;1.42;;;16.70;77.00;;;;;;5002914;28;20026;-77
2021/07/07 08:48:51;;;;;;;7.07;1.80;;;16.80;76.20;;;;;;4996430;28;20103;-78
2021/07/07 08:51:16;;;;;;;3.63;1.60;;;16.80;76.50;;;;;;4998735;28;20065;-89
2021/07/07 08:53:44;;;;;;;7.53;2.10;;;16.90;75.60;;;;;;5012471;28;20034;-78
2021/07/07 08:56:09;;;;;;;7.53;2.35;;;16.90;75.50;;;;;;5007160;28;20115;-77
2021/07/07 08:58:35;;;;;;;4.95;1.80;;;16.80;74.60;;;;;;5013057;28;20062;-77
2021/07/07 09:01:02;;;;;;;5.07;1.80;;;16.80;74.60;;;;;;5004150;28;20026;-76
2021/07/07 09:03:28;;;;;;;4.22;1.80;;;16.90;75.30;;;;;;4991539;28;20461;-79
2021/07/07 09:06:01;;;;;;;3.67;1.80;;;16.90;74.40;;;;;;4998646;28;20027;-76
2021/07/07 09:08:35;;;;;;;;;;;17.10;75.70;;;;;;5006065;28;20544;-80
2021/07/07 09:11:24;;;;;;;3.15;1.45;;;17.10;72.90;;;;;;5004867;28;19921;-79
2021/07/07 09:14:19;;;;;;;4.93;1.70;;;17.30;74.80;;;;;;5001487;28;20022;-78
2021/07/07 09:16:55;;;;;;;3.50;1.48;;;17.60;72.90;;;;;;4981466;28;20525;-79
2021/07/07 09:19:23;;;;;;;4.68;1.65;;;17.80;72.20;;;;;;5006873;28;20025;-82
2021/07/07 09:21:55;;;;;;;5.43;1.73;;;18.10;73.30;;;;;;5005481;28;20398;-79
2021/07/07 09:24:24;;;;;;;3.72;1.50;;;18.30;72.80;;;;;;5011842;28;20799;-78
2021/07/07 09:27:09;;;;;;;3.17;1.83;;;18.40;71.50;;;;;;5012561;28;20062;-78
2021/07/07 09:29:36;;;;;;;3.50;1.63;;;18.50;71.10;;;;;;4999177;28;20096;-76
2021/07/07 09:32:27;;;;;;;4.28;2.17;;;18.50;70.90;;;;;;5005173;28;20030;-79
2021/07/07 09:34:57;;;;;;;2.65;1.33;;;18.40;70.00;;;;;;5006717;28;20018;-78
2021/07/07 09:37:33;;;;;;;3.45;1.42;;;18.50;70.40;;;;;;5007155;28;20466;-78
2021/07/07 09:39:59;;;;;;;4.55;1.40;;;18.70;69.40;;;;;;5006451;28;20033;-77
2021/07/07 09:42:30;;;;;;;4.35;1.75;;;18.70;69.30;;;;;;5003305;28;20025;-77
2021/07/07 09:44:58;;;;;;;4.07;1.48;;;18.80;68.20;;;;;;5011076;28;20030;-78
2021/07/07 09:47:24;;;;;;;5.95;1.52;;;18.90;70.10;;;;;;5007172;28;20019;-78
2021/07/07 09:49:50;;;;;;;4.20;1.48;;;18.90;70.20;;;;;;5002434;28;20057;-77
2021/07/07 09:52:22;;;;;;;6.43;2.03;;;18.90;68.70;;;;;;5006282;28;20498;-77
2021/07/07 09:54:48;;;;;;;1.70;1.30;;;18.80;67.90;;;;;;5010813;28;20096;-81
2021/07/07 09:57:15;;;;;;;3.58;1.50;;;18.80;68.10;;;;;;5009716;28;20022;-76
2021/07/07 09:59:41;;;;;;;4.45;1.50;;;18.90;70.10;;;;;;4999292;28;20026;-81
2021/07/07 10:02:07;;;;;;;5.60;1.80;;;19.00;69.70;;;;;;5001212;28;20119;-77
2021/07/07 10:04:37;;;;;;;3.58;1.52;;;19.30;69.80;;;;;;5004798;28;20030;-76
2021/07/07 10:07:04;;;;;;;3.95;1.65;;;19.50;66.50;;;;;;5010890;28;20464;-77
2021/07/07 10:09:30;;;;;;;3.90;1.25;;;19.70;67.80;;;;;;5001923;28;20027;-76
2021/07/07 10:11:57;;;;;;;5.60;1.90;;;20.00;66.80;;;;;;5010025;28;20029;-77
2021/07/07 10:14:23;;;;;;;6.20;2.05;;;20.20;67.30;;;;;;5009460;28;20018;-77
2021/07/07 10:16:50;;;;;;;3.42;1.50;;;20.30;66.10;;;;;;5005189;28;20030;-79
2021/07/07 10:19:16;;;;;;;4.35;1.90;;;20.40;65.90;;;;;;4995985;28;20084;-78
2021/07/07 10:21:42;;;;;;;2.97;1.30;;;20.40;64.90;;;;;;5008807;28;20025;-77
2021/07/07 10:24:10;;;;;;;2.63;1.10;;;20.40;64.90;;;;;;5010966;28;20030;-77
2021/07/07 10:26:38;;;;;;;2.35;1.20;;;20.40;62.20;;;;;;5001339;28;20109;-77
2021/07/07 10:29:05;;;;;;;4.10;1.45;;;20.40;64.20;;;;;;5003228;28;20129;-75
2021/07/07 10:31:51;;;;;;;3.53;1.27;;;20.50;61.30;;;;;;4996577;28;20090;-78
2021/07/07 10:34:18;;;;;;;2.38;1.25;;;20.50;63.40;;;;;;4999423;28;20070;-76
2021/07/07 10:36:44;;;;;;;2.97;1.30;;;20.40;62.20;;;;;;5010539;28;20026;-80
2021/07/07 10:39:13;;;;;;;2.60;1.30;;;20.40;63.70;;;;;;5006071;28;20072;-77
2021/07/07 10:41:41;;;;;;;3.75;1.52;;;20.60;64.70;;;;;;5011170;28;20038;-76
2021/07/07 10:44:07;;;;;;;4.05;1.25;;;20.80;62.70;;;;;;5010113;28;20026;-80
2021/07/07 10:47:00;;;;;;;2.70;1.40;;;21.00;60.60;;;;;;5011613;28;20040;-78
2021/07/07 10:49:28;;;;;;;1.97;1.00;;;20.80;62.90;;;;;;5010507;28;20071;-80
2021/07/07 10:51:59;;;;;;;3.88;1.45;;;20.70;59.20;;;;;;4995870;28;20040;-78
2021/07/07 10:54:27;;;;;;;3.20;1.83;;;20.40;60.50;;;;;;5005784;28;20379;-78
2021/07/07 10:56:54;;;;;;;4.03;1.67;;;20.10;61.70;;;;;;4996456;28;20034;-79
2021/07/07 10:59:34;;;;;;;4.38;2.85;;;19.90;62.90;;;;;;5005363;28;20033;-79
2021/07/07 11:02:11;;;;;;;8.20;3.97;;;19.80;64.70;;;;;;5001253;28;20027;-79
2021/07/07 11:04:41;;;;;;;5.88;2.22;;;19.80;65.30;;;;;;5002465;28;20022;-80
2021/07/07 11:07:31;;;;;;;5.18;1.90;;;19.90;64.90;;;;;;4997263;28;20026;-76
2021/07/07 11:09:58;;;;;;;5.57;2.65;;;20.00;65.40;;;;;;5007295;28;20508;-77
2021/07/07 11:12:35;;;;;;;4.90;1.48;;;20.30;63.20;;;;;;5001304;28;20018;-76
2021/07/07 11:15:14;;;;;;;3.42;1.60;;;20.40;62.20;;;;;;4997739;28;20030;-78
2021/07/07 11:17:40;;;;;;;3.25;1.88;;;20.50;63.70;;;;;;5004451;28;20037;-79
2021/07/07 11:20:13;;;;;;;5.28;2.17;;;20.80;64.10;;;;;;5002266;28;20021;-81
2021/07/07 11:22:41;;;;;;;3.53;1.50;;;21.20;65.10;;;;;;5006729;28;20034;-77
2021/07/07 11:25:09;;;;;;;3.17;1.15;;;21.60;61.30;;;;;;5009337;28;20117;-81
2021/07/07 11:27:36;;;;;;;2.35;1.30;;;21.30;57.90;;;;;;4994257;28;20062;-82
2021/07/07 11:30:04;;;;;;;2.20;1.30;;;21.30;60.50;;;;;;5009651;28;20073;-83
2021/07/07 11:32:41;;;;;;;2.70;1.13;;;21.30;58.70;;;;;;5003342;28;20080;-83
2021/07/07 11:35:13;;;;;;;3.90;1.40;;;21.50;59.00;;;;;;5004814;28;20389;-80
2021/07/07 11:37:40;;;;;;;2.20;1.00;;;21.70;60.30;;;;;;5003668;28;20121;-79
2021/07/07 11:40:06;;;;;;;2.17;1.15;;;21.80;59.70;;;;;;4996390;28;20087;-81
2021/07/07 11:42:33;;;;;;;3.47;1.10;;;21.80;58.00;;;;;;4995371;28;20026;-79
2021/07/07 11:44:58;;;;;;;3.83;1.23;;;21.70;58.90;;;;;;4998044;28;20026;-80
2021/07/07 11:47:31;;;;;;;3.13;1.05;;;21.20;56.50;;;;;;4998332;28;20023;-80
2021/07/07 11:50:01;;;;;;;;;;;20.60;58.50;;;;;;5003659;28;20033;-80
2021/07/07 11:52:26;;;;;;;4.63;1.20;;;20.20;60.10;;;;;;4995309;28;19968;-83
2021/07/07 11:54:52;;;;;;;3.78;1.38;;;19.90;61.70;;;;;;5005923;28;20065;-84
2021/07/07 11:57:17;;;;;;;5.40;1.50;;;19.70;62.20;;;;;;4996472;28;20030;-82
2021/07/07 11:59:54;;;;;;;3.65;1.33;;;19.70;63.10;;;;;;4997058;28;20487;-82
2021/07/07 12:02:20;;;;;;;2.70;1.13;;;19.70;61.80;;;;;;5000374;28;20511;-81
2021/07/07 12:04:47;;;;;;;2.92;1.20;;;19.70;61.70;;;;;;4997845;28;20052;-81
2021/07/07 12:07:13;;;;;;;3.80;1.17;;;19.70;62.20;;;;;;4995607;28;20018;-83
2021/07/07 12:09:39;;;;;;;1.05;0.93;;;19.80;61.70;;;;;;4995206;28;20034;-85
2021/07/07 12:12:07;;;;;;;3.35;1.40;;;19.80;62.30;;;;;;5011035;28;20076;-85
2021/07/07 12:14:35;;;;;;;3.25;1.10;;;20.10;62.70;;;;;;5008383;28;20112;-86
2021/07/07 12:17:02;;;;;;;4.28;1.40;;;20.40;62.50;;;;;;5009824;28;20028;-86
2021/07/07 12:19:29;;;;;;;2.25;1.20;;;20.50;61.80;;;;;;5009072;28;20430;-86
2021/07/07 12:22:00;;;;;;;1.63;1.10;;;20.70;60.40;;;;;;5008810;28;20022;-84
2021/07/07 12:24:30;;;;;;;1.63;1.33;;;20.80;61.80;;;;;;5010820;28;20033;-82
2021/07/07 12:26:57;;;;;;;3.38;1.30;;;21.20;61.40;;;;;;4994715;28;20033;-82
2021/07/07 12:29:25;;;;;;;2.15;1.20;;;21.30;58.50;;;;;;4996176;28;20034;-82
2021/07/07 12:31:59;;;;;;;1.88;1.10;;;21.50;58.30;;;;;;4995815;28;20045;-82
2021/07/07 12:34:30;;;;;;;3.60;1.20;;;21.60;58.30;;;;;;5005032;28;20113;-82
2021/07/07 12:36:58;;;;;;;3.75;1.30;;;21.80;57.40;;;;;;5008438;28;20029;-83
2021/07/07 12:39:27;;;;;;;3.28;1.02;;;22.00;57.80;;;;;;4994342;28;20045;-82
2021/07/07 12:42:04;;;;;;;2.05;1.00;;;22.20;57.70;;;;;;4995970;28;20022;-83
2021/07/07 12:44:33;;;;;;;2.20;1.00;;;22.20;55.90;;;;;;4996035;28;20403;-82
2021/07/07 12:47:13;;;;;;;2.95;1.10;;;22.40;57.40;;;;;;5000025;28;20054;-82
2021/07/07 12:49:46;;;;;;;4.85;1.20;;;22.30;54.60;;;;;;5002993;28;20033;-82
2021/07/07 12:52:13;;;;;;;;;;;22.30;57.20;;;;;;4995976;28;20118;-81
2021/07/07 12:54:38;;;;;;;3.20;1.00;;;22.30;56.40;;;;;;5011708;28;19906;-82
2021/07/07 12:57:04;;;;;;;3.38;1.00;;;22.20;54.20;;;;;;4995079;28;20398;-82